Kingdom City, MO

8:52 AM CDT on August 21, 2014 (GMT -0500)
Washington | Change Station
CLOSE
Current Station
Airport
Location: Washington,
Elevation: 486 ft
Nearby Weather Stations
Active Advisory: Heat Advisory Active Notice: Local Storm Report

Elev 486 ft 38.59 °N, 90.99 °W | Updated 17 minutes ago

Clear
Clear
77 °F
Feels Like 77 °F
N
4
Wind Variable Wind from SE

Today
High -- | Low -- °F
--% Chance of Precip.
Yesterday
High -- | Low -- °F
Precip. -- in
6:26 AM 7:54 PM
Waning Crescent, 14% visible
Pressure 29.99 in
Visibility 9.0 miles
Clouds Clear
Dew Point 72 °F
Humidity 83%
Rainfall 0.00 in
Snow Depth Not available.
UV 2 out of 12
Pollen 10.60 out of 12
Air Quality Not available.
Flu Activity Not available.
METAR KFYG 211335Z AUTO 14003KT 9SM CLR 25/22 A2999 RMK AO2 LTG DSNT NE

More Conditions Fewer Conditions

Pressure 29.99 in
Visibility 9.0 miles
Clouds Clear
Dew Point 72 °F
Humidity 83%
Rainfall 0.00 in
Snow Depth Not available.
UV 2 out of 12
Pollen 10.60 out of 12
Air Quality Not available.
Flu Activity Not available.
METAR KFYG 211335Z AUTO 14003KT 9SM CLR 25/22 A2999 RMK AO2 LTG DSNT NE

More Conditions Fewer Conditions

10-Day Weather Forecast

Almanac

Astronomy

Aug. 21, 2014 Rise Set
Actual Time 6:26 AM CDT 7:54 PM CDT
Civil Twilight 5:58 AM CDT 8:22 PM CDT
Nautical Twilight 5:25 AM CDT 8:55 PM CDT
Astronomical Twilight 4:49 AM CDT 9:31 PM CDT
Moon 2:58 AM CDT 5:22 PM CDT
Length of Visible Light 14h 23m
Length of Day
13h 27m
Tomorrow will be 2m 20s shorter.
Waning Crescent, 14% of the Moon is Illuminated
Today
Waning Crescent
Aug 25
New
Sep 2
First Quarter
Sep 8
Full
Sep 15
Last Quarter

Today's Extremes

State Highs State Lows

Community

WunderPhotos

Upload Photos

1,745,918 photos uploaded!

WunderBlogs® & News

Nearby

Snow Depth

Station Depth Elevation
No new snow has been reported.

Earthquake Activity

City Distance Mag. Time & Date
No recent earthquake activity has been reported nearby.
Minimum magnitude displayed is 2.5.

Coastal Water Temperatures

Place Temperature
No Stations Reporting

Nearby Weather Stations